createdAt,value
2018-12-05T00:00:15.216Z,88.96
2018-12-05T00:01:15.314Z,89.31
2018-12-05T00:02:15.488Z,89.24
2018-12-05T00:03:15.359Z,89.1
2018-12-05T00:04:15.133Z,89.21
2018-12-05T00:05:15.130Z,89.08
2018-12-05T00:06:15.905Z,89.14
2018-12-05T00:07:15.399Z,88.93
2018-12-05T00:08:15.308Z,89.17
2018-12-05T00:09:15.407Z,89.18
2018-12-05T00:10:15.116Z,89.32
2018-12-05T00:11:15.558Z,89.19
2018-12-05T00:12:15.071Z,89.25
2018-12-05T00:13:15.079Z,89.4
2018-12-05T00:14:15.215Z,89.27
2018-12-05T00:15:15.251Z,89.1
2018-12-05T00:16:15.104Z,88.98
2018-12-05T00:17:15.154Z,89.27
2018-12-05T00:18:15.099Z,88.98
2018-12-05T00:19:15.218Z,89.05
2018-12-05T00:20:15.071Z,89.04
2018-12-05T00:21:15.223Z,89.1
2018-12-05T00:22:15.228Z,89.24
2018-12-05T00:23:15.397Z,89.53
2018-12-05T00:24:15.077Z,89.42
2018-12-05T00:25:15.373Z,89.21
2018-12-05T00:26:15.424Z,88.96
2018-12-05T00:27:15.093Z,88.91
2018-12-05T00:28:15.169Z,89.06
2018-12-05T00:29:15.061Z,89.37
2018-12-05T00:30:15.130Z,89.32
2018-12-05T00:31:15.079Z,89.22
2018-12-05T00:32:15.163Z,89.32
2018-12-05T00:33:15.096Z,89.1
2018-12-05T00:34:15.073Z,89.39
2018-12-05T00:35:15.066Z,89.28
2018-12-05T00:36:15.041Z,89.15
2018-12-05T00:37:15.215Z,89.03
2018-12-05T00:38:15.091Z,89.25
2018-12-05T00:39:15.040Z,89.18
2018-12-05T00:40:15.316Z,89.21
2018-12-05T00:41:15.091Z,89.36
2018-12-05T00:42:15.260Z,89.5
2018-12-05T00:43:15.139Z,89.57
2018-12-05T00:44:15.142Z,89.52
2018-12-05T00:45:15.052Z,89.79
2018-12-05T00:46:15.041Z,89.91
2018-12-05T00:47:15.012Z,89.65
2018-12-05T00:48:15.056Z,89.57
2018-12-05T00:49:15.192Z,89.53
2018-12-05T00:50:15.136Z,89.69
2018-12-05T00:51:15.156Z,89.76
2018-12-05T00:52:15.096Z,89.63
2018-12-05T00:53:15.088Z,89.75
2018-12-05T00:54:15.176Z,89.87
2018-12-05T00:55:15.102Z,90.01
2018-12-05T00:56:15.237Z,90.23
2018-12-05T00:57:15.425Z,90.09
2018-12-05T00:58:15.095Z,89.95
2018-12-05T00:59:15.416Z,90.42
2018-12-05T01:00:15.044Z,90.08
2018-12-05T01:01:15.112Z,89.97
2018-12-05T01:02:14.994Z,89.96
2018-12-05T01:03:15.019Z,89.87
2018-12-05T01:04:15.087Z,89.9
2018-12-05T01:05:15.320Z,89.82
2018-12-05T01:06:15.177Z,89.62
2018-12-05T01:07:15.189Z,89.83
2018-12-05T01:08:15.141Z,89.78
2018-12-05T01:09:15.041Z,89.95
2018-12-05T01:10:15.055Z,89.87
2018-12-05T01:11:15.024Z,89.95
2018-12-05T01:12:15.077Z,89.81
2018-12-05T01:13:15.256Z,89.9
2018-12-05T01:14:15.147Z,89.81
2018-12-05T01:15:14.995Z,90.04
2018-12-05T01:16:15.095Z,89.8
2018-12-05T01:17:15.032Z,89.73
2018-12-05T01:18:15.047Z,89.77
2018-12-05T01:19:14.993Z,89.58
2018-12-05T01:20:15.175Z,89.72
2018-12-05T01:21:15.064Z,89.56
2018-12-05T01:22:15.128Z,89.63
2018-12-05T01:23:15.349Z,89.46
2018-12-05T01:24:15.030Z,89.59
2018-12-05T01:25:15.074Z,89.42
2018-12-05T01:26:15.552Z,89.62
2018-12-05T01:27:15.048Z,89.37
2018-12-05T01:28:15.030Z,89.26
2018-12-05T01:29:14.992Z,89.26
2018-12-05T01:30:15.272Z,89.41
2018-12-05T01:31:15.045Z,89.41
2018-12-05T01:32:15.004Z,89.43
2018-12-05T01:33:16.334Z,89.48
2018-12-05T01:34:15.038Z,89.49
2018-12-05T01:35:15.183Z,89.42
2018-12-05T01:36:15.007Z,89.57
2018-12-05T01:37:15.140Z,89.01
2018-12-05T01:38:15.582Z,88.85
2018-12-05T01:39:15.008Z,89.15
2018-12-05T01:40:15.230Z,89.34
2018-12-05T01:41:15.222Z,89.12
2018-12-05T01:42:15.228Z,89.12
2018-12-05T01:43:14.977Z,89.18
2018-12-05T01:44:14.983Z,89.29
2018-12-05T01:45:15.108Z,89.34
2018-12-05T01:46:14.997Z,89.49
2018-12-05T01:47:14.975Z,89.35
2018-12-05T01:48:15.016Z,89.54
2018-12-05T01:49:14.972Z,89.63
2018-12-05T01:50:15.250Z,89.58
2018-12-05T01:51:14.986Z,89.83
2018-12-05T01:52:15.219Z,89.61
2018-12-05T01:53:15.102Z,89.75
2018-12-05T01:54:14.971Z,89.64
2018-12-05T01:55:15.067Z,89.39
2018-12-05T01:56:14.998Z,89.79
2018-12-05T01:57:15.004Z,89.57
2018-12-05T01:58:14.977Z,89.58
2018-12-05T01:59:14.968Z,89.46
2018-12-05T02:00:15.057Z,89.58
2018-12-05T02:01:14.994Z,90.02
2018-12-05T02:02:14.986Z,89.68
2018-12-05T02:03:15.236Z,89.8
2018-12-05T02:04:14.950Z,89.65
2018-12-05T02:05:15.015Z,89.31
2018-12-05T02:06:15.214Z,89.53
2018-12-05T02:07:15.533Z,89.6
2018-12-05T02:08:14.954Z,89.35
2018-12-05T02:09:14.996Z,89.22
2018-12-05T02:10:14.963Z,89.5
2018-12-05T02:11:15.016Z,89.55
2018-12-05T02:12:15.394Z,89.27
2018-12-05T02:13:15.062Z,89.27
2018-12-05T02:14:15.017Z,89.48
2018-12-05T02:15:14.993Z,89.7
2018-12-05T02:16:15.185Z,89.36
2018-12-05T02:17:14.915Z,89.42
2018-12-05T02:18:14.954Z,89.33
2018-12-05T02:19:14.979Z,89.93
2018-12-05T02:20:15.055Z,89.5
2018-12-05T02:21:14.982Z,89.52
2018-12-05T02:22:15.032Z,89.66
2018-12-05T02:23:15.151Z,89.46
2018-12-05T02:24:15.223Z,89.55
2018-12-05T02:25:14.939Z,89.31
2018-12-05T02:26:15.317Z,89.42
2018-12-05T02:27:15.080Z,89.7
2018-12-05T02:28:15.381Z,89.41
2018-12-05T02:29:15.461Z,89.76
2018-12-05T02:30:15.212Z,89.37
2018-12-05T02:31:15.013Z,89.56
2018-12-05T02:32:15.090Z,89.61
2018-12-05T02:33:15.343Z,89.45
2018-12-05T02:34:14.950Z,89.32
2018-12-05T02:35:15.267Z,89.32
2018-12-05T02:36:15.043Z,89.15
2018-12-05T02:37:14.970Z,89.19
2018-12-05T02:38:14.961Z,89
2018-12-05T02:39:15.039Z,89.13
2018-12-05T02:40:14.914Z,89.07
2018-12-05T02:41:15.046Z,89.2
2018-12-05T02:42:15.120Z,89.07
2018-12-05T02:43:15.097Z,88.93
2018-12-05T02:44:15.013Z,88.91
2018-12-05T02:45:15.020Z,89.04
2018-12-05T02:46:14.985Z,89.08
2018-12-05T02:47:15.018Z,89.42
2018-12-05T02:48:14.969Z,89.46
2018-12-05T02:49:14.978Z,89.11
2018-12-05T02:50:15.288Z,89.16
2018-12-05T02:51:14.929Z,89
2018-12-05T02:52:14.991Z,88.94
2018-12-05T02:53:15.034Z,89.03
2018-12-05T02:54:14.903Z,89.06
2018-12-05T02:55:15.017Z,89.09
2018-12-05T02:56:15.102Z,89.34
2018-12-05T02:57:15.008Z,89.2
2018-12-05T02:58:14.969Z,89.21
2018-12-05T02:59:15.127Z,89.31
2018-12-05T03:00:15.023Z,89.44
2018-12-05T03:01:14.891Z,89.32
2018-12-05T03:02:14.944Z,89.34
2018-12-05T03:03:15.010Z,89.47
2018-12-05T03:04:15.205Z,89.55
2018-12-05T03:05:15.077Z,89.29
2018-12-05T03:06:15.089Z,89.16
2018-12-05T03:07:15.000Z,89.16
2018-12-05T03:08:14.938Z,89.23
2018-12-05T03:09:15.037Z,89.06
2018-12-05T03:10:15.015Z,89.48
2018-12-05T03:11:15.108Z,89.47
2018-12-05T03:12:14.980Z,89.57
2018-12-05T03:13:15.013Z,89.4
2018-12-05T03:14:15.129Z,89.13
2018-12-05T03:15:15.003Z,89.09
2018-12-05T03:16:15.096Z,89.19
2018-12-05T03:17:14.839Z,89.11
2018-12-05T03:18:14.967Z,89.17
2018-12-05T03:19:15.072Z,89.47
2018-12-05T03:20:15.655Z,89.43
2018-12-05T03:21:14.935Z,89.44
2018-12-05T03:22:15.111Z,88.91
2018-12-05T03:23:15.037Z,88.64
2018-12-05T03:24:15.024Z,89.02
2018-12-05T03:25:14.979Z,88.84
2018-12-05T03:26:14.961Z,89.02
2018-12-05T03:27:14.970Z,88.83
2018-12-05T03:28:14.937Z,88.73
2018-12-05T03:29:14.983Z,88.73
2018-12-05T03:30:14.997Z,88.69
2018-12-05T03:31:14.895Z,88.62
2018-12-05T03:32:14.858Z,88.47
2018-12-05T03:33:15.026Z,88.5
2018-12-05T03:34:14.913Z,88.46
2018-12-05T03:35:14.823Z,88.57
2018-12-05T03:36:14.891Z,88.7
2018-12-05T03:37:14.935Z,88.74
2018-12-05T03:38:15.064Z,88.66
2018-12-05T03:39:14.946Z,88.52
2018-12-05T03:40:14.796Z,88.87
2018-12-05T03:41:14.966Z,89.02
2018-12-05T03:42:14.930Z,89.38
2018-12-05T03:43:14.811Z,89.48
2018-12-05T03:44:14.846Z,89.8
2018-12-05T03:45:14.862Z,89.54
2018-12-05T03:46:14.922Z,89.9
2018-12-05T03:47:14.962Z,89.59
2018-12-05T03:48:14.892Z,89.37
2018-12-05T03:49:15.024Z,89.67
2018-12-05T03:50:14.903Z,89.51
2018-12-05T03:51:14.835Z,89.93
2018-12-05T03:52:14.996Z,89.73
2018-12-05T03:53:14.926Z,89.51
2018-12-05T03:54:14.788Z,89.54
2018-12-05T03:55:14.916Z,89.79
2018-12-05T03:56:14.824Z,89.38
2018-12-05T03:57:14.856Z,89.31
2018-12-05T03:58:14.936Z,89.25
2018-12-05T03:59:14.843Z,89.46
2018-12-05T04:00:14.990Z,89.33
2018-12-05T04:01:14.921Z,89.24
2018-12-05T04:02:15.050Z,89.85
2018-12-05T04:03:14.955Z,89.52
2018-12-05T04:04:14.886Z,89.27
2018-12-05T04:05:14.981Z,89.5
2018-12-05T04:06:14.944Z,89.69
2018-12-05T04:07:15.623Z,89.4
2018-12-05T04:08:14.957Z,89.42
2018-12-05T04:09:14.854Z,89.22
2018-12-05T04:10:15.621Z,89.31
2018-12-05T04:11:14.950Z,89.49
2018-12-05T04:12:14.928Z,89.16
2018-12-05T04:13:14.794Z,89.18
2018-12-05T04:14:14.910Z,89.05
2018-12-05T04:15:15.002Z,89.05
2018-12-05T04:16:14.748Z,89.46
2018-12-05T04:17:14.762Z,89.07
2018-12-05T04:18:14.947Z,89.1
2018-12-05T04:19:15.139Z,89.09
2018-12-05T04:20:14.944Z,89.24
2018-12-05T04:21:14.849Z,89.1
2018-12-05T04:22:15.128Z,88.95
2018-12-05T04:23:14.904Z,89.29
2018-12-05T04:24:14.968Z,89.33
2018-12-05T04:25:14.813Z,89.21
2018-12-05T04:26:14.778Z,88.99
2018-12-05T04:27:15.151Z,89.14
2018-12-05T04:28:15.011Z,89.04
2018-12-05T04:29:14.751Z,89.47
2018-12-05T04:30:15.010Z,89.23
2018-12-05T04:31:14.974Z,89.27
2018-12-05T04:32:15.889Z,89.25
2018-12-05T04:33:14.975Z,89.06
2018-12-05T04:34:14.979Z,89.02
2018-12-05T04:35:14.759Z,89.09
2018-12-05T04:36:14.945Z,89.33
2018-12-05T04:37:14.801Z,89.03
2018-12-05T04:38:15.295Z,89.1
2018-12-05T04:39:14.934Z,89.09
2018-12-05T04:40:15.125Z,89.28
2018-12-05T04:41:14.744Z,89.09
2018-12-05T04:42:14.743Z,88.96
2018-12-05T04:43:14.832Z,88.88
2018-12-05T04:44:14.752Z,88.98
2018-12-05T04:45:14.787Z,89.21
2018-12-05T04:46:14.968Z,89
2018-12-05T04:47:14.903Z,89.13
2018-12-05T04:48:14.808Z,89.16
2018-12-05T04:49:15.857Z,88.94
2018-12-05T04:50:14.943Z,89.13
2018-12-05T04:51:14.792Z,89.08
2018-12-05T04:52:15.165Z,89
2018-12-05T04:53:14.765Z,88.69
2018-12-05T04:54:14.905Z,88.87
2018-12-05T04:55:14.722Z,88.79
2018-12-05T04:56:14.751Z,88.7
2018-12-05T04:57:14.685Z,88.81
2018-12-05T04:58:14.975Z,88.96
2018-12-05T04:59:14.724Z,88.94
2018-12-05T05:00:14.755Z,88.94
2018-12-05T05:01:14.711Z,88.88
2018-12-05T05:02:14.732Z,88.74
2018-12-05T05:03:14.730Z,88.81
2018-12-05T05:04:14.914Z,88.57
2018-12-05T05:05:14.844Z,88.6
2018-12-05T05:06:14.700Z,88.71
2018-12-05T05:07:14.888Z,88.5
2018-12-05T05:08:14.971Z,88.67
2018-12-05T05:09:14.715Z,88.52
2018-12-05T05:10:14.805Z,88.41
2018-12-05T05:11:14.685Z,88.68
2018-12-05T05:12:15.036Z,88.5
2018-12-05T05:13:14.742Z,88.38
2018-12-05T05:14:14.706Z,88.56
2018-12-05T05:15:15.028Z,88.54
2018-12-05T05:16:14.679Z,89.06
2018-12-05T05:17:14.670Z,88.28
2018-12-05T05:18:14.706Z,89.57
2018-12-05T05:19:15.053Z,88.6
2018-12-05T05:20:14.751Z,88.51
2018-12-05T05:21:14.709Z,88.47
2018-12-05T05:22:14.688Z,88.51
2018-12-05T05:23:14.923Z,88.47
2018-12-05T05:24:14.724Z,88.23
2018-12-05T05:25:14.710Z,88.15
2018-12-05T05:26:14.706Z,88.25
2018-12-05T05:27:14.758Z,88.3
2018-12-05T05:28:14.675Z,88.41
2018-12-05T05:29:14.712Z,88.39
2018-12-05T05:30:14.669Z,88.21
2018-12-05T05:31:14.679Z,88.04
2018-12-05T05:32:14.860Z,88.23
2018-12-05T05:33:15.379Z,88
2018-12-05T05:34:14.947Z,88
2018-12-05T05:35:14.683Z,88.28
2018-12-05T05:36:17.551Z,88.61
2018-12-05T05:37:14.725Z,88.42
2018-12-05T05:38:14.678Z,88.3
2018-12-05T05:39:14.961Z,88.18
2018-12-05T05:40:14.740Z,88.1
2018-12-05T05:41:14.663Z,88.16
2018-12-05T05:42:15.489Z,88.09
2018-12-05T05:43:14.717Z,88.22
2018-12-05T05:44:14.714Z,87.96
2018-12-05T05:45:14.937Z,88.04
2018-12-05T05:46:14.768Z,88.15
2018-12-05T05:47:14.959Z,88.32
2018-12-05T05:48:15.015Z,88.09
2018-12-05T05:49:14.817Z,88.18
2018-12-05T05:50:14.654Z,88.19
2018-12-05T05:51:14.729Z,88.07
2018-12-05T05:52:14.658Z,88.15
2018-12-05T05:53:14.843Z,88.32
2018-12-05T05:54:14.687Z,88.16
2018-12-05T05:55:14.688Z,88.12
2018-12-05T05:56:14.775Z,88
2018-12-05T05:57:14.702Z,88.01
2018-12-05T05:58:14.938Z,87.82
2018-12-05T05:59:14.636Z,87.85
2018-12-05T06:00:14.643Z,87.47
2018-12-05T06:01:14.685Z,87.57
2018-12-05T06:02:15.023Z,87.59
2018-12-05T06:03:14.608Z,87.6
2018-12-05T06:04:14.653Z,87.97
2018-12-05T06:05:14.996Z,87.71
2018-12-05T06:06:15.036Z,88.19
2018-12-05T06:07:14.895Z,87.77
2018-12-05T06:08:14.952Z,87.55
2018-12-05T06:09:14.670Z,87.69
2018-12-05T06:10:14.919Z,87.85
2018-12-05T06:11:14.704Z,87.96
2018-12-05T06:12:14.780Z,87.83
2018-12-05T06:13:14.642Z,87.96
2018-12-05T06:14:15.048Z,87.72
2018-12-05T06:15:15.512Z,87.65
2018-12-05T06:16:14.901Z,87.39
2018-12-05T06:17:14.707Z,87.12
2018-12-05T06:18:14.671Z,87.23
2018-12-05T06:19:14.724Z,87.47
2018-12-05T06:20:14.633Z,87.37
2018-12-05T06:21:14.754Z,87.33
2018-12-05T06:22:14.712Z,87.09
2018-12-05T06:23:14.713Z,86.76
2018-12-05T06:24:14.916Z,87.25
2018-12-05T06:25:14.579Z,86.98
2018-12-05T06:26:14.770Z,86.98
2018-12-05T06:27:14.666Z,87.04
2018-12-05T06:28:14.955Z,86.83
2018-12-05T06:29:14.989Z,86.9
2018-12-05T06:30:14.622Z,86.75
2018-12-05T06:31:14.644Z,86.55
2018-12-05T06:32:14.632Z,86.54
2018-12-05T06:33:14.746Z,86.72
2018-12-05T06:34:14.626Z,86.31
2018-12-05T06:35:14.624Z,86.21
2018-12-05T06:36:14.584Z,86.07
2018-12-05T06:37:14.607Z,86.01
2018-12-05T06:38:14.962Z,86.27
2018-12-05T06:39:14.731Z,86.3
2018-12-05T06:40:14.721Z,86.08
2018-12-05T06:41:14.672Z,85.96
2018-12-05T06:42:14.646Z,86.32
2018-12-05T06:43:14.762Z,86.23
2018-12-05T06:44:14.649Z,86.29
2018-12-05T06:45:14.718Z,86.44
2018-12-05T06:46:14.654Z,85.84
2018-12-05T06:47:14.796Z,86.29
2018-12-05T06:48:14.565Z,86.24
2018-12-05T06:49:14.582Z,86.15
2018-12-05T06:50:14.798Z,85.84
2018-12-05T06:51:14.765Z,85.82
2018-12-05T06:52:14.744Z,86.21
2018-12-05T06:53:14.672Z,86.06
2018-12-05T06:54:14.622Z,85.84
2018-12-05T06:55:14.557Z,86.14
2018-12-05T06:56:14.573Z,86.24
2018-12-05T06:57:14.594Z,86.27
2018-12-05T06:58:14.572Z,86.35
2018-12-05T06:59:14.584Z,86.41
2018-12-05T07:00:14.558Z,86.35
2018-12-05T07:01:14.737Z,86.15
2018-12-05T07:02:14.542Z,86.2
2018-12-05T07:03:14.606Z,86.3
2018-12-05T07:04:14.545Z,86.34
2018-12-05T07:05:14.532Z,86.01
2018-12-05T07:06:14.525Z,86.15
2018-12-05T07:07:14.546Z,86.02
2018-12-05T07:08:14.564Z,86
2018-12-05T07:09:14.559Z,85.73
2018-12-05T07:10:14.683Z,84.81
2018-12-05T07:11:14.591Z,84.96
2018-12-05T07:12:14.750Z,85.21
2018-12-05T07:13:14.575Z,85.29
2018-12-05T07:14:14.608Z,85.37
2018-12-05T07:15:14.529Z,85.46
2018-12-05T07:16:14.675Z,85.64
2018-12-05T07:17:14.566Z,85.65
2018-12-05T07:18:14.539Z,85.23
2018-12-05T07:19:14.523Z,85.1
2018-12-05T07:20:14.531Z,85.5
2018-12-05T07:21:14.606Z,85.16
2018-12-05T07:22:14.607Z,85.33
2018-12-05T07:23:14.594Z,85.36
2018-12-05T07:24:14.612Z,85.33
2018-12-05T07:25:14.547Z,84.96
2018-12-05T07:26:14.692Z,84.76
2018-12-05T07:27:14.670Z,84.71
2018-12-05T07:28:14.709Z,85.01
2018-12-05T07:29:14.535Z,84.83
2018-12-05T07:30:14.540Z,84.88
2018-12-05T07:31:14.532Z,85.02
2018-12-05T07:32:14.586Z,85.35
2018-12-05T07:33:14.530Z,85.63
2018-12-05T07:34:14.571Z,85.75
2018-12-05T07:35:14.507Z,85.47
2018-12-05T07:36:14.689Z,85.34
2018-12-05T07:37:14.672Z,85.25
2018-12-05T07:38:19.298Z,84.86
2018-12-05T07:39:14.726Z,85.18
2018-12-05T07:40:14.860Z,84.86
2018-12-05T07:41:14.730Z,85.38
2018-12-05T07:42:14.671Z,85.42
2018-12-05T07:43:14.618Z,85.3
2018-12-05T07:44:14.486Z,84.77
2018-12-05T07:45:14.517Z,85.18
2018-12-05T07:46:14.493Z,85.05
2018-12-05T07:47:14.586Z,85.41
2018-12-05T07:48:14.723Z,85.55
2018-12-05T07:49:14.954Z,85.53
2018-12-05T07:50:15.855Z,85.58
2018-12-05T07:51:14.460Z,85.54
2018-12-05T07:52:14.512Z,85.35
2018-12-05T07:53:14.586Z,85.34
2018-12-05T07:54:14.560Z,85.31
2018-12-05T07:55:14.562Z,85.18
2018-12-05T07:56:14.701Z,85.28
2018-12-05T07:57:14.470Z,84.87
2018-12-05T07:58:14.645Z,84.87
2018-12-05T07:59:14.526Z,85.07
2018-12-05T08:00:14.469Z,85.08
2018-12-05T08:01:14.678Z,85.39
2018-12-05T08:02:14.584Z,85.3
2018-12-05T08:03:14.590Z,85.31
2018-12-05T08:04:14.492Z,85.44
2018-12-05T08:05:14.527Z,85.1
2018-12-05T08:06:14.797Z,85.2
2018-12-05T08:07:14.913Z,85.56
2018-12-05T08:08:14.520Z,85.19
2018-12-05T08:09:14.529Z,85.31
2018-12-05T08:10:14.688Z,84.65
2018-12-05T08:11:14.645Z,84.92
2018-12-05T08:12:14.656Z,85.18
2018-12-05T08:13:14.475Z,85.11
2018-12-05T08:14:14.425Z,85.12
2018-12-05T08:15:14.527Z,85.11
2018-12-05T08:16:14.513Z,85.42
2018-12-05T08:17:14.445Z,85.03
2018-12-05T08:18:14.672Z,84.98
2018-12-05T08:19:14.542Z,85.07
2018-12-05T08:20:14.691Z,85.22
2018-12-05T08:21:14.476Z,85.09
2018-12-05T08:22:14.687Z,85.19
2018-12-05T08:23:14.652Z,85.33
2018-12-05T08:24:14.480Z,85.52
2018-12-05T08:25:14.488Z,85.64
2018-12-05T08:26:14.629Z,85.53
2018-12-05T08:27:14.678Z,85.39
2018-12-05T08:28:14.515Z,85.1
2018-12-05T08:29:14.797Z,85.24
2018-12-05T08:30:14.453Z,85.16
2018-12-05T08:31:14.632Z,85.46
2018-12-05T08:32:14.622Z,85.26
2018-12-05T08:33:15.141Z,85.13
2018-12-05T08:34:14.572Z,84.78
2018-12-05T08:35:14.438Z,85.07
2018-12-05T08:36:14.444Z,85.13
2018-12-05T08:37:14.407Z,85.24
2018-12-05T08:38:14.442Z,85.1
2018-12-05T08:39:14.685Z,85.33
2018-12-05T08:40:14.428Z,84.68
2018-12-05T08:41:14.417Z,84.93
2018-12-05T08:42:14.458Z,84.89
2018-12-05T08:43:14.449Z,84.72
2018-12-05T08:44:14.380Z,84.73
2018-12-05T08:45:14.466Z,84.42
2018-12-05T08:46:14.435Z,84.74
2018-12-05T08:47:14.400Z,84.43
2018-12-05T08:48:14.448Z,84.37
2018-12-05T08:49:14.398Z,84.64
2018-12-05T08:50:14.390Z,84.68
2018-12-05T08:51:14.499Z,84.55
2018-12-05T08:52:14.374Z,84.53
2018-12-05T08:53:14.451Z,84.59
2018-12-05T08:54:20.833Z,84.5
2018-12-05T08:55:14.400Z,84.62
2018-12-05T08:56:14.441Z,84.04
2018-12-05T08:57:14.404Z,84.43
2018-12-05T08:58:14.376Z,84.2
2018-12-05T08:59:14.449Z,84.23
2018-12-05T09:00:14.491Z,84.36
2018-12-05T09:01:14.429Z,83.95
2018-12-05T09:02:14.927Z,84.25
2018-12-05T09:03:14.423Z,84.21
2018-12-05T09:04:14.390Z,83.95
2018-12-05T09:05:14.659Z,84.36
2018-12-05T09:06:14.609Z,84.28
2018-12-05T09:07:14.414Z,83.89
2018-12-05T09:08:14.614Z,83.5
2018-12-05T09:09:14.558Z,83.8
2018-12-05T09:10:15.210Z,83.78
2018-12-05T09:11:14.737Z,84.04
2018-12-05T09:12:14.521Z,84.12
2018-12-05T09:13:14.442Z,84.31
2018-12-05T09:14:14.456Z,83.85
2018-12-05T09:15:14.403Z,83.93
2018-12-05T09:16:14.510Z,83.76
2018-12-05T09:17:14.691Z,83.78
2018-12-05T09:18:14.443Z,83.88
2018-12-05T09:19:14.352Z,84.07
2018-12-05T09:20:14.409Z,83.97
2018-12-05T09:21:14.469Z,83.69
2018-12-05T09:22:14.515Z,84.07
2018-12-05T09:23:14.387Z,83.91
2018-12-05T09:24:14.352Z,83.97
2018-12-05T09:25:14.391Z,84.04
2018-12-05T09:26:14.557Z,84.14
2018-12-05T09:27:14.453Z,83.85
2018-12-05T09:28:14.388Z,83.89
2018-12-05T09:29:14.377Z,83.62
2018-12-05T09:30:15.043Z,83.56
2018-12-05T09:31:14.590Z,83.73
2018-12-05T09:32:14.423Z,83.62
2018-12-05T09:33:14.399Z,83.91
2018-12-05T09:34:14.341Z,83.99
2018-12-05T09:35:14.591Z,84.24
2018-12-05T09:36:14.390Z,83.98
2018-12-05T09:37:14.381Z,83.97
2018-12-05T09:38:14.520Z,83.73
2018-12-05T09:39:14.604Z,83.67
2018-12-05T09:40:14.375Z,83.68
2018-12-05T09:41:14.378Z,83.39
2018-12-05T09:42:14.386Z,83.81
2018-12-05T09:43:14.350Z,83.83
2018-12-05T09:44:14.319Z,83.6
2018-12-05T09:45:14.353Z,83.34
2018-12-05T09:46:15.167Z,83.51
2018-12-05T09:47:15.930Z,83.72
2018-12-05T09:48:14.516Z,83.76
2018-12-05T09:49:14.806Z,83.01
2018-12-05T09:50:14.404Z,83.14
2018-12-05T09:51:14.396Z,83.31
2018-12-05T09:52:14.351Z,82.93
2018-12-05T09:53:14.358Z,83.57
2018-12-05T09:54:14.397Z,83.75
2018-12-05T09:55:14.440Z,83.84
2018-12-05T09:56:14.506Z,83.82
2018-12-05T09:57:14.536Z,83.47
2018-12-05T09:58:14.502Z,83.5
2018-12-05T09:59:14.429Z,83.61
2018-12-05T10:00:14.397Z,83.73
2018-12-05T10:01:14.622Z,83.24
2018-12-05T10:02:14.476Z,83.23
2018-12-05T10:03:14.715Z,83.55
2018-12-05T10:04:14.562Z,83.8
2018-12-05T10:05:14.676Z,83.81
2018-12-05T10:06:14.429Z,83.46
2018-12-05T10:07:14.454Z,83.69
2018-12-05T10:08:14.594Z,83.82
2018-12-05T10:09:14.435Z,83.87
2018-12-05T10:10:14.397Z,83.93
2018-12-05T10:11:14.349Z,83.7
2018-12-05T10:12:14.294Z,83.95
2018-12-05T10:13:14.297Z,83.54
2018-12-05T10:14:14.437Z,83.38
2018-12-05T10:15:14.481Z,83.87
2018-12-05T10:16:14.795Z,83.59
2018-12-05T10:17:14.644Z,83.7
2018-12-05T10:18:14.394Z,83
2018-12-05T10:19:14.304Z,83.29
2018-12-05T10:20:14.529Z,83.35
2018-12-05T10:21:14.272Z,83.33
2018-12-05T10:22:14.312Z,83.67
2018-12-05T10:23:14.278Z,83.44
2018-12-05T10:24:14.262Z,83.33
2018-12-05T10:25:14.272Z,83.62
2018-12-05T10:26:14.456Z,83.61
2018-12-05T10:27:14.350Z,83.71
2018-12-05T10:28:14.736Z,83.59
2018-12-05T10:29:14.410Z,83.54
2018-12-05T10:30:14.354Z,83.55
2018-12-05T10:31:14.267Z,83.54
2018-12-05T10:32:14.314Z,83.53
2018-12-05T10:33:14.280Z,83.65
2018-12-05T10:34:14.268Z,83.56
2018-12-05T10:35:14.260Z,83.64
2018-12-05T10:36:14.525Z,84.01
2018-12-05T10:37:14.280Z,83.52
2018-12-05T10:38:14.287Z,83.98
2018-12-05T10:39:14.263Z,84.01
2018-12-05T10:40:14.664Z,83.92
2018-12-05T10:41:14.233Z,84.21
2018-12-05T10:42:14.297Z,84.08
2018-12-05T10:43:14.279Z,83.92
2018-12-05T10:44:14.379Z,83.62
2018-12-05T10:45:14.488Z,84
2018-12-05T10:46:15.099Z,83.87
2018-12-05T10:47:14.652Z,83.74
2018-12-05T10:48:14.459Z,83.87
2018-12-05T10:49:14.239Z,84.06
2018-12-05T10:50:14.332Z,83.87
2018-12-05T10:51:14.559Z,83.86
2018-12-05T10:52:14.332Z,83.54
2018-12-05T10:53:14.333Z,83.02
2018-12-05T10:54:14.305Z,82.96
2018-12-05T10:55:14.395Z,82.91
2018-12-05T10:56:14.447Z,83.08
2018-12-05T10:57:14.526Z,83.25
2018-12-05T10:58:14.251Z,83.48
2018-12-05T10:59:14.345Z,83.39
2018-12-05T11:00:14.381Z,83.29
2018-12-05T11:01:14.295Z,83.13
2018-12-05T11:02:14.972Z,83.29
2018-12-05T11:03:14.252Z,83
2018-12-05T11:04:14.393Z,82.9
2018-12-05T11:05:14.399Z,82.48
2018-12-05T11:06:14.482Z,82.11
2018-12-05T11:07:14.240Z,82.46
2018-12-05T11:08:14.265Z,82.48
2018-12-05T11:09:14.531Z,82.21
2018-12-05T11:10:14.310Z,82.87
2018-12-05T11:11:14.336Z,82.48
2018-12-05T11:12:14.318Z,82.47
2018-12-05T11:13:14.347Z,82.29
2018-12-05T11:14:14.410Z,82.44
2018-12-05T11:15:14.260Z,82.21
2018-12-05T11:16:14.424Z,82.31
2018-12-05T11:17:14.426Z,82.42
2018-12-05T11:18:14.257Z,82.55
2018-12-05T11:19:14.722Z,82.66
2018-12-05T11:20:14.413Z,82.07
2018-12-05T11:21:14.272Z,82.24
2018-12-05T11:22:14.367Z,82.48
2018-12-05T11:23:14.314Z,82
2018-12-05T11:24:14.527Z,82.05
2018-12-05T11:25:14.242Z,82.03
2018-12-05T11:26:14.275Z,82.57
2018-12-05T11:27:14.412Z,82.28
2018-12-05T11:28:15.066Z,82.36
2018-12-05T11:29:14.325Z,82.44
2018-12-05T11:30:14.477Z,82.16
2018-12-05T11:31:14.456Z,81.58
2018-12-05T11:32:14.496Z,82.08
2018-12-05T11:33:14.352Z,81.74
2018-12-05T11:34:14.357Z,81.66
2018-12-05T11:35:14.229Z,82.3
2018-12-05T11:36:14.279Z,82.18
2018-12-05T11:37:14.590Z,82.01
2018-12-05T11:38:14.202Z,81.71
2018-12-05T11:39:14.206Z,81.87
2018-12-05T11:40:15.013Z,81.86
2018-12-05T11:41:14.264Z,82.03
2018-12-05T11:42:14.387Z,82.35
2018-12-05T11:43:14.231Z,82.33
2018-12-05T11:44:14.337Z,82.16
2018-12-05T11:45:14.432Z,81.93
2018-12-05T11:46:14.583Z,82.15
2018-12-05T11:47:14.179Z,82.06
2018-12-05T11:48:14.255Z,82.16
2018-12-05T11:49:14.770Z,82
2018-12-05T11:50:14.234Z,82.11
2018-12-05T11:51:14.186Z,82.1
2018-12-05T11:52:14.384Z,82.41
2018-12-05T11:53:14.285Z,82.59
2018-12-05T11:54:14.170Z,82.17
2018-12-05T11:55:14.274Z,82.29
2018-12-05T11:56:14.208Z,82.18
2018-12-05T11:57:14.192Z,82.21
2018-12-05T11:58:14.190Z,82.57
2018-12-05T11:59:14.198Z,82.29
2018-12-05T12:00:14.173Z,82.36
2018-12-05T12:02:14.220Z,82.13
2018-12-05T12:03:14.157Z,82.61
2018-12-05T12:04:14.277Z,82.58
2018-12-05T12:05:14.345Z,82.59
2018-12-05T12:06:14.345Z,82.35
2018-12-05T12:07:14.211Z,82.22
2018-12-05T12:08:14.773Z,82.03
2018-12-05T12:09:14.202Z,81.6
2018-12-05T12:10:14.694Z,81.78
2018-12-05T12:11:14.187Z,81.97
2018-12-05T12:12:14.210Z,81.19
2018-12-05T12:13:14.368Z,81.76
2018-12-05T12:14:14.237Z,81.18
2018-12-05T12:15:14.167Z,81.18
2018-12-05T12:16:14.218Z,81.27
2018-12-05T12:17:14.148Z,81.71
2018-12-05T12:18:14.301Z,81.31
2018-12-05T12:19:14.170Z,81.39
2018-12-05T12:20:14.269Z,81.27
2018-12-05T12:21:14.156Z,81.34
2018-12-05T12:22:14.187Z,81.13
2018-12-05T12:23:14.694Z,80.74
2018-12-05T12:24:14.226Z,81
2018-12-05T12:25:15.416Z,80.6
2018-12-05T12:26:15.414Z,81.22
2018-12-05T12:27:14.176Z,81.09
2018-12-05T12:28:14.475Z,81.34
2018-12-05T12:29:14.286Z,81.3
2018-12-05T12:30:15.975Z,80.89
2018-12-05T12:31:14.122Z,80.4
2018-12-05T12:32:14.219Z,80.68
2018-12-05T12:33:14.471Z,80.77
2018-12-05T12:34:14.286Z,80
2018-12-05T12:35:14.191Z,80.08
2018-12-05T12:36:14.175Z,80.05
2018-12-05T12:37:14.119Z,79.84
2018-12-05T12:38:14.185Z,80.06
2018-12-05T12:39:14.374Z,79.69
2018-12-05T12:40:14.483Z,79.82
2018-12-05T12:41:14.162Z,79.84
2018-12-05T12:42:14.139Z,79.71
2018-12-05T12:43:14.107Z,80.18
2018-12-05T12:44:14.226Z,79.78
2018-12-05T12:45:14.104Z,79.72
2018-12-05T12:46:14.191Z,79.62
2018-12-05T12:47:14.505Z,79.46
2018-12-05T12:48:14.179Z,79.75
2018-12-05T12:49:14.342Z,79.55
2018-12-05T12:50:14.480Z,79.11
2018-12-05T12:51:14.429Z,79.05
2018-12-05T12:52:14.126Z,79.1
2018-12-05T12:53:14.090Z,79.21
2018-12-05T12:54:14.257Z,79.08
2018-12-05T12:55:14.357Z,79.18
2018-12-05T12:56:14.172Z,79.19
2018-12-05T12:57:14.118Z,79.2